Darstellungsparameter: Aktuell verwendete Einstellungen:
Skalierung der Graphiken ... ?
xyx+y,   Skalierungsfaktor:      Skalierung: Modus: x, Faktor: 1
Darstellungszeitraum ... ?
Vom - - bis: - -   Zeitraum: 19.06.2008 - 19.06.2008
Min/Max/Avg-Anzeige ... ?
Zeige MMA aktuell
Zeige MMA Monat
Zeige MMA alles
Zeige --A aktuell
Zeige --A Monat
Zeige --A alles
Keine MMA-Anzeige
MMA:
Keine MMA-Graphiken
MMA-Basis: 19.06.2008 - 19.06.2008
Quicknavigation für Darstellung... ?
Tage:      1T, 2T, 3T, 5T -1T -2T -3T -5T +1T +2T +3T +5T
Wochen: 1W, 2W, 3W -1W -2W -3W +1W +2W +3W
Monate: 1M, 3M, 6M -1M -3M -6M +1M +3M +6M
Jahre:    1J, 3J, 5J, 10J -1J -3J -5J -10J +1J +3J +5J +10J
Nutze für die Darstellung ... ?
Originaldaten oder Mittelwerte auf ...
Stundenbasis Tagesbasis Wochenbasis
Monatsbasis Jahresbasis      Datenbasis: Original-Daten
Darstellen als:
Statistik (Auto) Statistik J:M      Darstellung:
Zur Graphik,    zurück zur Übersicht aller Sensoren.
 
Tabellarische Datenbersicht: ?
 
Sensor: Nr:Datum:Temp:Abs-Feuchte:Windchill:Wind:
Aussen-T/F 1 19-06-2008 00:11:04 18.6 C 7.16 g/m*3 18.6 C 0 km/h
2 19-06-2008 00:23:04 18.5 C 7.12 g/m*3 18.5 C 0 km/h
3 19-06-2008 00:35:04 18.3 C 7.35 g/m*3 18.3 C 0 km/h
4 19-06-2008 00:47:04 18.2 C 7.15 g/m*3 18.2 C 0 km/h
5 19-06-2008 00:59:04 17.9 C 7.33 g/m*3 17.9 C 0 km/h
6 19-06-2008 01:11:04 17.6 C 7.35 g/m*3 17.6 C 0 km/h
7 19-06-2008 01:23:04 17.5 C 7.31 g/m*3 17.5 C 0 km/h
8 19-06-2008 01:35:04 17.5 C 7.6 g/m*3 17.5 C 0 km/h
9 19-06-2008 01:47:04 16.9 C 7.77 g/m*3 16.9 C 0 km/h
10 19-06-2008 01:59:04 17 C 7.38 g/m*3 17 C 0 km/h
11 19-06-2008 02:11:04 16.9 C 7.48 g/m*3 16.9 C 0 km/h
12 19-06-2008 02:23:04 17 C 7.38 g/m*3 17 C 0 km/h
13 19-06-2008 02:35:04 16.8 C 7.72 g/m*3 16.8 C 0 km/h
14 19-06-2008 02:47:04 16.5 C 7.86 g/m*3 16.5 C 0 km/h
15 19-06-2008 02:59:04 16.5 C 7.86 g/m*3 16.5 C 0 km/h
16 19-06-2008 03:11:04 16.3 C 7.91 g/m*3 16.3 C 0 km/h
17 19-06-2008 03:23:04 16.2 C 7.86 g/m*3 16.2 C 0 km/h
18 19-06-2008 03:35:04 16.2 C 7.72 g/m*3 16.2 C 0 km/h
19 19-06-2008 03:47:04 16.3 C 7.63 g/m*3 16.3 C 0 km/h
20 19-06-2008 03:59:05 15.9 C 8.26 g/m*3 15.9 C 0 km/h
21 19-06-2008 04:11:05 15.6 C 8.38 g/m*3 15.6 C 0 km/h
22 19-06-2008 04:23:05 15.7 C 8.43 g/m*3 15.7 C 0 km/h
23 19-06-2008 04:35:05 15.6 C 8.38 g/m*3 15.6 C 0 km/h
24 19-06-2008 04:47:05 15.7 C 8.16 g/m*3 15.7 C 0 km/h
25 19-06-2008 04:59:05 16 C 7.63 g/m*3 16 C 0 km/h
Sensor: Nr:Datum:Temp:Abs-Feuchte:Windchill:Wind:
Aussen-T/F 26 19-06-2008 05:11:05 16 C 7.77 g/m*3 16 C 0 km/h
27 19-06-2008 05:23:05 16 C 7.9 g/m*3 16 C 0 km/h
28 19-06-2008 05:35:05 16 C 7.9 g/m*3 16 C 0 km/h
29 19-06-2008 05:47:05 15.6 C 8.11 g/m*3 15.6 C 0 km/h
30 19-06-2008 05:59:05 15.5 C 8.2 g/m*3 15.5 C 0 km/h
31 19-06-2008 06:11:05 15.6 C 8.25 g/m*3 15.6 C 0 km/h
32 19-06-2008 06:23:05 15.8 C 8.35 g/m*3 15.8 C 0 km/h
33 19-06-2008 06:35:05 15.8 C 8.21 g/m*3 15.8 C 0 km/h
34 19-06-2008 06:47:05 15.9 C 8.26 g/m*3 15.9 C 0 km/h
35 19-06-2008 06:59:05 15.9 C 8.4 g/m*3 15.9 C 0 km/h
36 19-06-2008 07:11:02 16 C 8.31 g/m*3 16 C 0 km/h
37 19-06-2008 07:23:02 16.2 C 8.41 g/m*3 16.2 C 0 km/h
38 19-06-2008 07:35:02 16.3 C 8.46 g/m*3 16.3 C 0 km/h
39 19-06-2008 07:47:02 16.5 C 8.57 g/m*3 16.5 C 0 km/h
40 19-06-2008 07:59:02 16.7 C 8.67 g/m*3 16.7 C 0 km/h
41 19-06-2008 08:11:02 17.6 C 8.55 g/m*3 17.6 C 0 km/h
42 19-06-2008 08:23:01 17.8 C 8.35 g/m*3 17.8 C 0 km/h
43 19-06-2008 08:35:02 18.2 C 8.39 g/m*3 18.2 C 0 km/h
44 19-06-2008 08:47:02 18.8 C 8.54 g/m*3 18.8 C 0 km/h
45 19-06-2008 08:59:02 19 C 7.99 g/m*3 19 C 0 km/h
46 19-06-2008 09:11:02 18.7 C 7.2 g/m*3 18.7 C 0 km/h
47 19-06-2008 09:23:02 18.5 C 7.12 g/m*3 18.5 C 0 km/h
48 19-06-2008 09:35:02 19 C 6.84 g/m*3 19 C 0 km/h
49 19-06-2008 09:47:02 18.8 C 6.93 g/m*3 18.8 C 0 km/h
50 19-06-2008 09:59:03 19.2 C 7.09 g/m*3 19.2 C 0 km/h
Sensor: Nr:Datum:Temp:Abs-Feuchte:Windchill:Wind:
Aussen-T/F 51 19-06-2008 10:11:01 19.5 C 6.88 g/m*3 19.5 C 0 km/h
52 19-06-2008 10:23:02 19.8 C 7.17 g/m*3 19.8 C 0 km/h
53 19-06-2008 10:35:02 20.5 C 6.94 g/m*3 20.5 C 0 km/h
54 19-06-2008 10:47:02 21.2 C 6.86 g/m*3 21.2 C 0 km/h
55 19-06-2008 10:59:02 21.5 C 6.79 g/m*3 21.5 C 0 km/h
56 19-06-2008 11:11:02 22.1 C 6.25 g/m*3 22.1 C 0 km/h
57 19-06-2008 11:23:02 22.9 C 6.54 g/m*3 22.9 C 0 km/h
58 19-06-2008 11:35:02 23.2 C 6.03 g/m*3 23.2 C 0 km/h
59 19-06-2008 11:47:02 23.6 C 5.74 g/m*3 23.6 C 0 km/h
60 19-06-2008 11:59:02 23.9 C 5.62 g/m*3 23.9 C 0 km/h
61 19-06-2008 12:11:02 25.1 C 5.09 g/m*3 25.1 C 0 km/h
62 19-06-2008 12:23:03 23.8 C 5.38 g/m*3 23.8 C 0 km/h
63 19-06-2008 12:35:02 23.7 C 5.56 g/m*3 23.7 C 0 km/h
64 19-06-2008 12:47:02 23.9 C 5.84 g/m*3 23.9 C 0 km/h
65 19-06-2008 12:59:02 24.5 C 5.6 g/m*3 24.5 C 0 km/h
66 19-06-2008 13:11:01 24.5 C 5.6 g/m*3 24.5 C 0 km/h
67 19-06-2008 13:23:02 26.2 C 5.17 g/m*3 26.2 C 0 km/h
68 19-06-2008 13:35:02 25.9 C 5.57 g/m*3 25.9 C 0 km/h
69 19-06-2008 13:47:02 25.7 C 5.75 g/m*3 25.7 C 0 km/h
70 19-06-2008 13:59:02 25.8 C 5.54 g/m*3 25.8 C 0 km/h
71 19-06-2008 14:11:02 25.8 C 5.54 g/m*3 25.8 C 0 km/h
72 19-06-2008 14:23:02 25.6 C 5.48 g/m*3 25.6 C 0 km/h
73 19-06-2008 14:35:03 25.3 C 5.15 g/m*3 25.3 C 0 km/h
74 19-06-2008 14:47:02 25.1 C 5.09 g/m*3 25.1 C 0 km/h
75 19-06-2008 14:59:02 25.7 C 5.51 g/m*3 25.7 C 0 km/h
Sensor: Nr:Datum:Temp:Abs-Feuchte:Windchill:Wind:
Aussen-T/F 76 19-06-2008 15:11:02 25.7 C 5.75 g/m*3 25.7 C 0 km/h
77 19-06-2008 15:23:02 25.9 C 6.05 g/m*3 25.9 C 0 km/h
78 19-06-2008 15:35:01 26.1 C 5.88 g/m*3 26.1 C 0 km/h
79 19-06-2008 15:47:02 26.7 C 5.82 g/m*3 26.7 C 0 km/h
80 19-06-2008 15:59:02 26.1 C 5.88 g/m*3 26.1 C 0 km/h
81 19-06-2008 16:11:02 25.2 C 6.05 g/m*3 25.2 C 0 km/h
82 19-06-2008 16:23:02 26.4 C 6.22 g/m*3 26.4 C 0 km/h
83 19-06-2008 16:35:02 26.5 C 6.26 g/m*3 26.5 C 0 km/h
84 19-06-2008 16:47:02 26.4 C 6.22 g/m*3 26.4 C 0 km/h
85 19-06-2008 16:59:02 26.1 C 6.12 g/m*3 26.1 C 0 km/h
86 19-06-2008 17:11:03 26.5 C 6.26 g/m*3 26.5 C 0 km/h
87 19-06-2008 17:23:02 26.3 C 6.44 g/m*3 26.3 C 0 km/h
88 19-06-2008 17:35:02 25.9 C 6.78 g/m*3 25.9 C 0 km/h
89 19-06-2008 17:47:02 26.1 C 7.1 g/m*3 26.1 C 0 km/h
90 19-06-2008 17:59:02 25.7 C 7.18 g/m*3 25.7 C 0 km/h
91 19-06-2008 18:11:02 24.8 C 7.06 g/m*3 24.8 C 0 km/h
92 19-06-2008 18:23:02 24.7 C 7.02 g/m*3 24.7 C 0 km/h
93 19-06-2008 18:35:02 24.6 C 7.2 g/m*3 24.6 C 0 km/h
94 19-06-2008 18:47:02 25.6 C 7.14 g/m*3 25.6 C 0 km/h
95 19-06-2008 18:59:02 26.3 C 7.18 g/m*3 26.3 C 0 km/h
96 19-06-2008 19:11:01 25.7 C 7.18 g/m*3 25.7 C 0 km/h
97 19-06-2008 19:23:01 24.2 C 7.26 g/m*3 24.2 C 0 km/h
98 19-06-2008 19:35:02 23.9 C 7.79 g/m*3 23.9 C 0 km/h
99 19-06-2008 19:47:01 23.6 C 7.66 g/m*3 23.6 C 0 km/h
100 19-06-2008 19:59:01 23.3 C 7.74 g/m*3 23.3 C 0 km/h
Sensor: Nr:Datum:Temp:Abs-Feuchte:Windchill:Wind:
Aussen-T/F 101 19-06-2008 20:11:02 23.2 C 7.69 g/m*3 23.2 C 0 km/h
102 19-06-2008 20:23:01 23 C 7.81 g/m*3 23 C 0 km/h
103 19-06-2008 20:35:01 22.6 C 8.04 g/m*3 22.6 C 0 km/h
104 19-06-2008 20:47:03 22.3 C 8.1 g/m*3 22.3 C 0 km/h
105 19-06-2008 20:59:03 21.9 C 8.3 g/m*3 21.9 C 0 km/h
106 19-06-2008 21:11:02 21.9 C 8.3 g/m*3 21.9 C 0 km/h
107 19-06-2008 21:23:02 21.6 C 8.35 g/m*3 21.6 C 0 km/h
108 19-06-2008 21:35:03 21.6 C 8.35 g/m*3 21.6 C 0 km/h
109 19-06-2008 21:47:02 21.4 C 8.25 g/m*3 21.4 C 0 km/h
110 19-06-2008 21:59:02 21.5 C 8.49 g/m*3 21.5 C 0 km/h
111 19-06-2008 22:11:02 21.4 C 8.44 g/m*3 21.4 C 0 km/h
112 19-06-2008 22:23:02 18.9 C 11.83 g/m*3 18.9 C 0 km/h
113 19-06-2008 22:35:02 17.8 C 12.45 g/m*3 17.8 C 0 km/h
114 19-06-2008 22:47:02 17.6 C 12.75 g/m*3 17.6 C 0 km/h
115 19-06-2008 22:59:02 17.5 C 12.82 g/m*3 17.5 C 0 km/h
116 19-06-2008 23:11:02 17.4 C 12.89 g/m*3 17.4 C 0 km/h
117 19-06-2008 23:23:02 17.9 C 13.44 g/m*3 17.9 C 0 km/h
118 19-06-2008 23:35:02 17.5 C 13.12 g/m*3 17.5 C 0 km/h
119 19-06-2008 23:47:02 17.4 C 13.04 g/m*3 17.4 C 0 km/h
120 19-06-2008 23:59:02 16.8 C 12.58 g/m*3 16.8 C 0 km/h

Legende:
   Min
   Max


Maximal/Minimal-Werte vom 19.06.2008 - 19.06.2008

Sensor Min Max Avg
Temp
(Aussen-T/F)
15.5 °C
19-06-2008  05:59:05
26.7 °C
19-06-2008  15:47:02
20.67 °C
Abs-Feuchte
(Aussen-T/F)
5.09 g/m*3
19-06-2008  12:11:02
13.44 g/m*3
19-06-2008  23:23:02
7.54 g/m*3
Windchill
(Aussen-T/F)
15.5 C
19-06-2008  05:59:05
26.7 C
19-06-2008  15:47:02
20.5 C

Die Daten stammen von einer Davis Vantage Pro 2 Wetter-Station und werden unter Linux mit der Software wview2wettercgi und aufbereitet. Alle Angaben erfolgen ohne Gewähr für ihre Vollständigkeit oder Richtigkeit.
Kontakt: Rainer Krienke krienke@uni-koblenz.de . Meine Webseiten an der Uni Koblenz oder privat.
Version: $Revision: 0.78 $